Time;durP1;ratioP1;P1;durP2;ratioP2;P2;SDS_P1;SDS_P2;PMS_P1;PMS_P2;Temp;Humidity;BMP_temperature;BMP_pressure;BME280_temperature;BME280_humidity;BME280_pressure;Samples;Min_cycle;Max_cycle;Signal;HPM_P1;HPM_P2
2022/10/07 00:01:46;;;;;;;3.15;1.27;;;12.50;99.90;;;;;;4968749;28;20026;-75
2022/10/07 00:04:12;;;;;;;1.85;1.33;;;12.40;99.90;;;;;;4968635;28;20097;-75
2022/10/07 00:06:38;;;;;;;0.77;0.60;;;12.30;99.90;;;;;;4968585;28;20051;-75
2022/10/07 00:09:07;;;;;;;0.68;0.68;;;12.30;99.90;;;;;;4968610;28;20034;-75
2022/10/07 00:11:35;;;;;;;0.70;0.70;;;;;;;;;;4967746;28;20086;-75
2022/10/07 00:14:07;;;;;;;1.42;0.73;;;12.10;99.90;;;;;;4968491;28;20124;-75
2022/10/07 00:16:36;;;;;;;0.80;0.80;;;12.00;99.90;;;;;;4968237;28;20293;-75
2022/10/07 00:19:04;;;;;;;1.02;0.98;;;12.00;99.90;;;;;;4966589;28;20027;-75
2022/10/07 00:21:32;;;;;;;0.60;0.55;;;11.90;99.90;;;;;;4968528;28;20444;-75
2022/10/07 00:24:01;;;;;;;0.80;0.80;;;11.80;99.90;;;;;;4968079;28;20034;-75
2022/10/07 00:26:30;;;;;;;0.75;0.75;;;11.70;99.90;;;;;;4966236;28;20035;-76
2022/10/07 00:28:56;;;;;;;0.70;0.70;;;11.60;99.90;;;;;;4967378;28;20086;-76
2022/10/07 00:31:25;;;;;;;8.07;1.25;;;11.40;99.90;;;;;;4967578;28;20189;-75
2022/10/07 00:33:51;;;;;;;2.45;1.17;;;11.30;99.90;;;;;;4967828;28;20018;-75
2022/10/07 00:36:23;;;;;;;0.50;0.50;;;11.10;99.90;;;;;;4966353;28;20062;-75
2022/10/07 00:38:52;;;;;;;0.60;0.60;;;11.00;99.90;;;;;;4966688;28;20125;-75
2022/10/07 00:41:21;;;;;;;1.25;1.15;;;10.90;99.90;;;;;;4967716;28;20019;-75
2022/10/07 00:43:47;;;;;;;0.80;0.80;;;10.70;99.90;;;;;;4966953;28;20023;-75
2022/10/07 00:46:30;;;;;;;7.03;2.05;;;10.60;99.90;;;;;;4966077;28;20095;-75
2022/10/07 00:49:04;;;;;;;8.30;1.50;;;10.50;99.90;;;;;;4966247;28;20057;-75
2022/10/07 00:51:32;;;;;;;3.03;1.30;;;10.40;99.90;;;;;;4966100;28;20326;-75
2022/10/07 00:53:59;;;;;;;1.45;1.20;;;10.40;99.90;;;;;;4966061;28;20045;-75
2022/10/07 00:56:26;;;;;;;0.50;0.50;;;10.30;99.90;;;;;;4966159;28;20085;-75
2022/10/07 00:58:53;;;;;;;2.40;1.52;;;10.20;99.90;;;;;;4966857;28;20030;-75
2022/10/07 01:01:19;;;;;;;8.10;0.90;;;10.10;99.90;;;;;;4967354;28;20080;-75
2022/10/07 01:03:47;;;;;;;1.67;0.77;;;10.00;99.90;;;;;;4967545;28;20054;-75
2022/10/07 01:06:14;;;;;;;0.88;0.88;;;9.90;99.90;;;;;;4967623;28;20411;-75
2022/10/07 01:08:42;;;;;;;3.30;0.77;;;9.90;99.90;;;;;;4967199;28;20036;-75
2022/10/07 01:11:21;;;;;;;1.20;1.10;;;9.80;99.90;;;;;;4967405;28;20408;-75
2022/10/07 01:14:07;;;;;;;3.08;0.82;;;9.70;99.90;;;;;;4967633;28;20027;-75
2022/10/07 01:17:11;;;;;;;2.35;2.15;;;9.70;99.90;;;;;;4967671;28;20619;-75
2022/10/07 01:20:21;;;;;;;1.27;1.00;;;9.70;99.90;;;;;;4963820;28;20070;-75
2022/10/07 01:22:50;;;;;;;1.95;1.08;;;9.70;99.90;;;;;;4961877;28;20274;-75
2022/10/07 01:26:06;;;;;;;2.08;0.60;;;9.70;99.90;;;;;;4967278;28;20189;-75
2022/10/07 01:28:43;;;;;;;0.43;0.43;;;9.80;99.90;;;;;;4945207;28;20037;-75
2022/10/07 01:31:14;;;;;;;1.00;0.77;;;9.90;99.90;;;;;;4944426;28;20716;-75
2022/10/07 01:33:43;;;;;;;3.60;0.93;;;9.90;99.90;;;;;;4948979;28;20085;-75
2022/10/07 01:36:19;;;;;;;0.40;0.40;;;10.10;99.90;;;;;;4967402;28;20050;-75
2022/10/07 01:38:50;;;;;;;1.08;0.80;;;10.10;99.90;;;;;;4966974;28;20031;-75
2022/10/07 01:41:18;;;;;;;1.48;0.63;;;10.20;99.90;;;;;;4967100;28;20188;-75
2022/10/07 01:43:46;;;;;;;2.25;1.55;;;10.30;99.90;;;;;;4966947;28;20380;-75
2022/10/07 01:46:21;;;;;;;0.98;0.60;;;10.30;99.90;;;;;;4967035;28;20026;-76
2022/10/07 01:48:47;;;;;;;2.90;1.10;;;10.40;99.90;;;;;;4970592;28;20019;-75
2022/10/07 01:51:16;;;;;;;2.38;0.98;;;10.50;99.90;;;;;;4970790;28;20498;-75
2022/10/07 01:53:50;;;;;;;2.50;1.58;;;10.50;99.90;;;;;;4970811;28;20037;-75
2022/10/07 01:56:40;;;;;;;6.60;1.58;;;10.60;99.90;;;;;;4970926;28;20034;-75
2022/10/07 01:59:23;;;;;;;1.08;1.08;;;10.50;99.90;;;;;;4985198;28;20030;-75
2022/10/07 02:02:02;;;;;;;1.48;0.80;;;10.60;99.90;;;;;;4970397;28;20027;-75
2022/10/07 02:04:34;;;;;;;0.60;0.60;;;10.60;99.90;;;;;;4970528;28;20533;-75
2022/10/07 02:07:12;;;;;;;3.67;2.35;;;10.60;99.90;;;;;;4970312;28;20093;-75
2022/10/07 02:09:44;;;;;;;6.85;1.10;;;10.50;99.90;;;;;;4970644;28;20034;-75
2022/10/07 02:12:36;;;;;;;1.95;1.73;;;10.50;99.90;;;;;;4970552;28;20035;-75
2022/10/07 02:15:26;;;;;;;0.60;0.60;;;10.60;99.90;;;;;;4968920;28;20368;-75
2022/10/07 02:17:56;;;;;;;2.95;1.17;;;9.80;99.90;;;;;;4970352;28;20086;-75
2022/10/07 02:20:25;;;;;;;;;;;10.70;99.90;;;;;;4970533;28;20498;-75
2022/10/07 02:22:53;;;;;;;5.07;1.08;;;10.70;99.90;;;;;;4970263;28;19913;-75
2022/10/07 02:25:22;;;;;;;1.45;1.15;;;10.80;99.90;;;;;;4968871;28;20053;-75
2022/10/07 02:27:52;;;;;;;0.93;0.93;;;10.90;99.90;;;;;;4985284;28;20035;-75
2022/10/07 02:30:19;;;;;;;2.85;1.30;;;11.00;99.90;;;;;;4969821;28;20039;-75
2022/10/07 02:32:50;;;;;;;3.45;0.88;;;11.10;99.90;;;;;;4970411;28;20038;-75
2022/10/07 02:35:44;;;;;;;0.65;0.50;;;11.00;99.90;;;;;;4969774;28;20031;-75
2022/10/07 02:38:13;;;;;;;1.73;0.77;;;11.10;99.90;;;;;;4969532;28;20038;-75
2022/10/07 02:41:02;;;;;;;8.73;2.67;;;11.20;99.90;;;;;;4969942;28;20476;-75
2022/10/07 02:43:38;;;;;;;2.88;0.82;;;11.10;99.90;;;;;;4969878;28;20037;-75
2022/10/07 02:46:31;;;;;;;6.53;2.83;;;11.10;99.90;;;;;;4968285;28;20026;-76
2022/10/07 02:49:01;;;;;;;13.57;1.05;;;11.20;99.90;;;;;;4969847;28;20027;-75
2022/10/07 02:51:32;;;;;;;3.70;2.25;;;11.20;99.90;;;;;;4969466;28;20053;-75
2022/10/07 02:54:02;;;;;;;0.60;0.60;;;11.20;99.90;;;;;;4970328;28;20023;-75
2022/10/07 02:56:31;;;;;;;4.68;0.55;;;11.30;99.90;;;;;;4969619;28;20061;-75
2022/10/07 02:59:00;;;;;;;2.75;0.98;;;11.30;99.90;;;;;;4968465;28;20057;-75
2022/10/07 03:01:31;;;;;;;6.47;1.33;;;11.30;99.90;;;;;;4969447;28;20045;-75
2022/10/07 03:03:57;;;;;;;9.30;1.40;;;11.30;99.90;;;;;;4970240;28;20034;-75
2022/10/07 03:06:23;;;;;;;2.78;1.52;;;11.40;99.90;;;;;;4969146;28;20047;-75
2022/10/07 03:08:51;;;;;;;1.10;0.82;;;11.40;99.90;;;;;;4969362;28;20082;-75
2022/10/07 03:11:17;;;;;;;2.78;1.38;;;11.40;99.90;;;;;;4969586;28;20209;-75
2022/10/07 03:13:44;;;;;;;2.25;1.52;;;11.40;99.90;;;;;;4969328;28;20567;-75
2022/10/07 03:16:10;;;;;;;1.33;0.75;;;14.00;99.90;;;;;;4969703;28;20377;-75
2022/10/07 03:18:36;;;;;;;7.60;0.60;;;11.50;99.90;;;;;;4969720;28;20322;-76
2022/10/07 03:21:02;;;;;;;1.42;0.90;;;11.60;99.90;;;;;;4969119;28;20082;-75
2022/10/07 03:23:32;;;;;;;0.95;0.95;;;11.50;99.90;;;;;;4969028;28;20476;-75
2022/10/07 03:25:58;;;;;;;2.53;1.25;;;11.70;99.90;;;;;;4967993;28;20277;-75
2022/10/07 03:28:26;;;;;;;6.18;1.33;;;11.60;99.90;;;;;;4968725;28;20090;-75
2022/10/07 03:30:51;;;;;;;0.75;0.55;;;11.50;99.90;;;;;;4967074;28;20511;-76
2022/10/07 03:33:18;;;;;;;1.80;0.65;;;11.60;99.90;;;;;;4969492;28;20041;-75
2022/10/07 03:35:44;;;;;;;3.85;1.33;;;11.60;99.90;;;;;;4969214;28;20030;-75
2022/10/07 03:38:11;;;;;;;0.95;0.95;;;11.60;99.90;;;;;;4968719;28;20037;-75
2022/10/07 03:40:37;;;;;;;1.05;1.00;;;11.60;99.90;;;;;;4969844;28;20038;-76
2022/10/07 03:43:04;;;;;;;1.48;0.90;;;11.50;99.90;;;;;;4983671;28;20027;-75
2022/10/07 03:45:30;;;;;;;1.35;0.68;;;11.50;99.90;;;;;;4967111;28;20403;-75
2022/10/07 03:47:57;;;;;;;2.33;1.83;;;11.60;99.90;;;;;;4968432;28;20035;-75
2022/10/07 03:50:24;;;;;;;4.05;0.85;;;11.60;99.90;;;;;;4968631;28;20030;-75
2022/10/07 03:52:49;;;;;;;6.97;1.75;;;11.60;99.90;;;;;;4968608;28;20280;-75
2022/10/07 03:55:15;;;;;;;3.17;1.17;;;11.50;99.90;;;;;;4967270;28;20221;-75
2022/10/07 03:57:51;;;;;;;1.52;1.17;;;11.50;99.90;;;;;;4968865;28;20076;-75
2022/10/07 04:00:21;;;;;;;2.33;1.10;;;11.50;99.90;;;;;;4968294;28;20477;-75
2022/10/07 04:02:48;;;;;;;3.70;1.33;;;11.50;99.90;;;;;;4968761;28;20046;-75
2022/10/07 04:05:15;;;;;;;3.88;1.02;;;11.50;99.90;;;;;;4967946;28;20031;-75
2022/10/07 04:07:46;;;;;;;1.13;1.10;;;13.90;99.90;;;;;;4968450;28;20038;-75
2022/10/07 04:10:14;;;;;;;1.52;0.80;;;11.60;99.90;;;;;;4967772;28;20041;-75
2022/10/07 04:12:40;;;;;;;7.50;1.75;;;11.60;99.90;;;;;;4968146;28;20668;-75
2022/10/07 04:15:07;;;;;;;0.85;0.85;;;11.70;99.90;;;;;;4967379;28;20270;-75
2022/10/07 04:17:36;;;;;;;3.38;0.70;;;11.70;99.90;;;;;;4968132;28;20066;-75
2022/10/07 04:20:02;;;;;;;1.83;1.45;;;11.70;99.90;;;;;;4967913;28;20491;-75
2022/10/07 04:22:27;;;;;;;0.43;0.40;;;11.70;99.90;;;;;;4968125;28;20033;-75
2022/10/07 04:27:38;;;;;;;2.58;1.15;;;11.60;99.90;;;;;;4968144;28;20156;-75
2022/10/07 04:30:04;;;;;;;1.17;1.17;;;11.50;99.90;;;;;;4967866;28;20030;-75
2022/10/07 04:32:30;;;;;;;1.48;1.23;;;11.50;99.90;;;;;;4966410;28;20454;-75
2022/10/07 04:34:56;;;;;;;1.88;1.70;;;11.40;99.90;;;;;;4967890;28;20022;-75
2022/10/07 04:37:22;;;;;;;2.25;1.05;;;11.40;99.90;;;;;;4967939;28;20034;-75
2022/10/07 04:39:47;;;;;;;4.13;0.93;;;11.50;99.90;;;;;;4967383;28;20026;-75
2022/10/07 04:43:17;;;;;;;1.75;1.52;;;11.50;99.90;;;;;;4967588;28;20387;-75
2022/10/07 04:44:59;;;;;;;2.22;0.88;;;11.50;99.90;;;;;;4967302;28;20177;-75
2022/10/07 04:47:25;;;;;;;1.95;0.50;;;11.30;99.90;;;;;;4967596;28;20114;-75
2022/10/07 04:49:52;;;;;;;3.22;1.05;;;11.30;99.90;;;;;;4967374;28;20030;-75
2022/10/07 04:52:19;;;;;;;2.85;1.92;;;11.20;99.90;;;;;;4967676;28;20023;-75
2022/10/07 04:54:45;;;;;;;0.95;0.90;;;11.10;99.90;;;;;;4967542;28;20023;-75
2022/10/07 04:57:12;;;;;;;2.67;1.52;;;10.90;99.90;;;;;;4967245;28;20031;-75
2022/10/07 04:59:38;;;;;;;1.23;1.10;;;10.80;99.90;;;;;;4968885;28;20053;-75
2022/10/07 05:02:04;;;;;;;0.70;0.70;;;10.70;99.90;;;;;;4968182;28;20098;-75
2022/10/07 05:04:30;;;;;;;0.40;0.40;;;10.60;99.90;;;;;;4967538;28;20166;-75
2022/10/07 05:06:56;;;;;;;2.15;0.93;;;10.50;99.90;;;;;;4967154;28;20474;-75
2022/10/07 05:09:22;;;;;;;1.77;1.00;;;10.40;99.90;;;;;;4967518;28;20555;-76
2022/10/07 05:11:48;;;;;;;3.28;1.35;;;8.10;99.90;;;;;;4967453;28;20651;-76
2022/10/07 05:14:14;;;;;;;2.95;1.15;;;10.20;99.90;;;;;;4967036;28;20476;-75
2022/10/07 05:16:40;;;;;;;1.00;1.00;;;10.00;99.90;;;;;;4967447;28;20411;-75
2022/10/07 05:19:05;;;;;;;4.15;1.92;;;9.90;99.90;;;;;;4967368;28;20034;-75
2022/10/07 05:21:32;;;;;;;0.75;0.65;;;9.80;99.90;;;;;;4973016;28;20042;-75
2022/10/07 05:23:58;;;;;;;3.88;1.63;;;9.80;99.90;;;;;;4977156;28;20207;-75
2022/10/07 05:26:26;;;;;;;15.00;3.05;;;9.70;99.90;;;;;;4974469;28;20035;-75
2022/10/07 05:28:52;;;;;;;3.80;2.10;;;9.60;99.90;;;;;;4975056;28;20085;-75
2022/10/07 05:31:21;;;;;;;6.13;3.80;;;9.50;99.90;;;;;;4972604;28;20034;-76
2022/10/07 05:33:56;;;;;;;5.93;4.13;;;9.40;99.90;;;;;;4972596;28;20476;-75
2022/10/07 05:36:22;;;;;;;1.15;1.05;;;9.30;99.90;;;;;;4971692;28;20023;-77
2022/10/07 05:38:48;;;;;;;1.73;1.58;;;9.20;99.90;;;;;;4973760;28;20015;-76
2022/10/07 05:41:14;;;;;;;10.52;1.42;;;9.60;99.90;;;;;;4977588;28;20085;-77
2022/10/07 05:43:46;;;;;;;13.45;1.10;;;9.10;99.90;;;;;;4972069;28;20455;-76
2022/10/07 05:46:19;;;;;;;8.95;1.70;;;9.10;99.90;;;;;;4971748;28;20073;-76
2022/10/07 05:48:46;;;;;;;2.92;1.25;;;9.00;99.90;;;;;;4973354;28;20026;-76
2022/10/07 05:51:15;;;;;;;3.88;1.90;;;8.90;99.90;;;;;;4972935;28;20125;-75
2022/10/07 05:53:41;;;;;;;0.68;0.68;;;8.90;99.90;;;;;;4971631;28;20027;-75
2022/10/07 05:56:09;;;;;;;1.95;1.75;;;8.80;99.90;;;;;;4971528;28;20242;-76
2022/10/07 05:58:35;;;;;;;1.33;0.85;;;8.80;99.90;;;;;;4981644;28;20026;-74
2022/10/07 06:01:05;;;;;;;4.20;1.27;;;8.80;99.90;;;;;;4980252;28;20023;-75
2022/10/07 06:03:31;;;;;;;1.48;1.25;;;8.70;99.90;;;;;;4981771;28;20331;-75
2022/10/07 06:05:58;;;;;;;7.90;3.15;;;8.70;99.90;;;;;;4970079;28;20066;-75
2022/10/07 06:08:24;;;;;;;3.20;2.00;;;8.70;99.90;;;;;;4970216;28;20023;-75
2022/10/07 06:13:34;;;;;;;2.25;2.05;;;8.70;99.90;;;;;;4970460;28;20041;-76
2022/10/07 06:16:02;;;;;;;2.25;1.92;;;8.70;99.90;;;;;;4974692;28;20042;-75
2022/10/07 06:18:28;;;;;;;1.48;1.05;;;8.70;99.90;;;;;;4981239;28;20034;-75
2022/10/07 06:20:55;;;;;;;5.45;2.67;;;8.80;99.90;;;;;;4976715;28;20094;-76
2022/10/07 06:23:21;;;;;;;1.45;1.33;;;8.80;99.90;;;;;;4981720;28;20042;-76
2022/10/07 06:25:58;;;;;;;3.55;1.52;;;8.80;99.90;;;;;;4981492;28;20384;-77
2022/10/07 06:28:24;;;;;;;2.22;1.27;;;8.90;99.90;;;;;;4980840;28;20021;-76
2022/10/07 06:30:50;;;;;;;11.85;2.22;;;9.00;99.90;;;;;;4981813;28;20039;-76
2022/10/07 06:33:20;;;;;;;10.43;2.15;;;9.00;99.90;;;;;;4981294;28;20037;-77
2022/10/07 06:35:46;;;;;;;3.50;2.40;;;8.80;99.90;;;;;;4976601;28;20050;-76
2022/10/07 06:38:15;;;;;;;1.45;1.13;;;9.20;99.90;;;;;;4960474;29;20502;-76
2022/10/07 06:40:41;;;;;;;2.42;2.17;;;9.20;99.90;;;;;;4960993;28;20082;-76
2022/10/07 06:43:07;;;;;;;3.33;1.85;;;9.40;99.90;;;;;;4976633;28;20035;-76
2022/10/07 06:45:34;;;;;;;3.67;2.00;;;;;;;;;;4962392;28;20385;-77
2022/10/07 06:48:00;;;;;;;3.85;1.73;;;12.80;99.90;;;;;;4968967;28;20022;-77
2022/10/07 06:50:26;;;;;;;3.90;1.92;;;;;;;;;;4978556;28;20039;-76
2022/10/07 06:52:52;;;;;;;2.67;1.83;;;9.60;99.90;;;;;;4977708;28;20023;-77
2022/10/07 06:55:18;;;;;;;1.70;1.60;;;9.80;99.90;;;;;;4990893;28;20113;-77
2022/10/07 06:57:44;;;;;;;4.13;1.30;;;9.80;99.90;;;;;;4978983;28;20034;-77
2022/10/07 07:00:10;;;;;;;2.85;1.50;;;9.90;99.90;;;;;;4974925;28;20379;-77
2022/10/07 07:02:36;;;;;;;6.05;1.80;;;10.00;99.90;;;;;;4979117;28;20047;-75
2022/10/07 07:05:04;;;;;;;4.88;3.17;;;10.10;99.90;;;;;;4971281;28;20541;-76
2022/10/07 07:07:30;;;;;;;3.45;1.90;;;11.20;99.90;;;;;;4973641;28;20054;-77
2022/10/07 07:09:56;;;;;;;3.53;1.60;;;10.40;99.90;;;;;;4971097;28;20026;-74
2022/10/07 07:12:25;;;;;;;1.63;1.33;;;10.60;99.90;;;;;;4972502;28;20031;-76
2022/10/07 07:14:51;;;;;;;3.45;1.20;;;10.70;99.90;;;;;;4970488;28;20101;-75
2022/10/07 07:17:17;;;;;;;1.38;1.17;;;10.90;99.90;;;;;;4972462;28;20563;-75
2022/10/07 07:19:43;;;;;;;1.95;1.48;;;11.00;99.90;;;;;;4970967;28;20098;-76
2022/10/07 07:22:10;;;;;;;3.42;2.17;;;11.10;99.90;;;;;;4972723;28;20023;-74
2022/10/07 07:24:35;;;;;;;3.95;2.75;;;11.20;99.90;;;;;;4987381;28;20027;-75
2022/10/07 07:27:01;;;;;;;7.32;1.25;;;11.30;99.90;;;;;;4972250;28;20114;-75
2022/10/07 07:29:27;;;;;;;3.83;1.90;;;11.50;99.90;;;;;;4972417;28;20027;-76
2022/10/07 07:31:53;;;;;;;3.67;1.83;;;11.60;99.90;;;;;;4968778;28;20038;-76
2022/10/07 07:34:19;;;;;;;1.65;1.38;;;11.70;99.90;;;;;;4969607;28;20041;-75
2022/10/07 07:36:52;;;;;;;2.08;1.58;;;11.90;99.90;;;;;;4967949;28;20023;-76
2022/10/07 07:39:18;;;;;;;2.33;1.52;;;12.00;99.90;;;;;;4969513;28;20025;-76
2022/10/07 07:41:49;;;;;;;2.20;2.05;;;12.30;99.90;;;;;;4967986;28;20022;-76
2022/10/07 07:44:17;;;;;;;5.70;3.60;;;12.50;99.90;;;;;;4968729;28;20054;-76
2022/10/07 07:46:47;;;;;;;4.72;3.22;;;12.50;99.90;;;;;;4970335;28;20364;-77
2022/10/07 07:49:13;;;;;;;7.28;2.05;;;12.70;99.90;;;;;;4968589;28;20131;-76
2022/10/07 07:51:41;;;;;;;2.60;1.55;;;12.80;99.90;;;;;;4969039;28;20114;-76
2022/10/07 07:54:08;;;;;;;3.70;2.17;;;13.10;99.90;;;;;;4968289;28;20019;-76
2022/10/07 07:56:34;;;;;;;2.38;2.17;;;13.10;99.90;;;;;;4969746;28;20027;-76
2022/10/07 07:59:00;;;;;;;11.60;1.95;;;13.30;99.90;;;;;;4966910;28;20093;-77
2022/10/07 08:01:30;;;;;;;4.20;1.90;;;13.40;99.90;;;;;;4969243;28;20027;-76
2022/10/07 08:03:57;;;;;;;2.72;2.05;;;13.50;99.90;;;;;;4967598;28;20018;-75
2022/10/07 08:06:23;;;;;;;7.68;2.50;;;13.60;99.90;;;;;;4967694;28;20276;-75
2022/10/07 08:08:50;;;;;;;2.28;1.75;;;13.80;99.90;;;;;;4962127;28;20034;-76
2022/10/07 08:11:18;;;;;;;5.80;2.72;;;13.80;99.90;;;;;;4967742;28;20045;-77
2022/10/07 08:13:45;;;;;;;8.18;2.42;;;13.90;99.90;;;;;;4968126;28;20053;-76
2022/10/07 08:16:14;;;;;;;4.90;2.88;;;14.10;99.90;;;;;;4967379;28;20491;-76
2022/10/07 08:18:40;;;;;;;4.85;2.33;;;14.20;99.90;;;;;;4967592;28;20031;-76
2022/10/07 08:21:07;;;;;;;9.27;2.90;;;14.40;99.90;;;;;;4967514;28;20034;-77
2022/10/07 08:23:34;;;;;;;2.90;1.63;;;14.50;99.90;;;;;;4965914;28;20451;-80
2022/10/07 08:26:00;;;;;;;4.18;1.88;;;14.50;99.90;;;;;;4966676;28;20098;-75
2022/10/07 08:28:27;;;;;;;8.18;3.88;;;14.80;99.90;;;;;;4967610;28;20022;-75
2022/10/07 08:30:54;;;;;;;6.68;4.32;;;14.80;99.90;;;;;;4966847;28;20042;-75
2022/10/07 08:33:21;;;;;;;5.90;3.03;;;15.10;99.90;;;;;;4967111;28;20455;-76
2022/10/07 08:35:51;;;;;;;2.30;1.80;;;15.10;99.90;;;;;;4966653;28;20093;-75
2022/10/07 08:38:17;;;;;;;2.30;2.10;;;15.20;99.90;;;;;;4967087;28;20539;-75
2022/10/07 08:40:50;;;;;;;3.55;2.50;;;15.20;99.90;;;;;;4968305;28;20110;-76
2022/10/07 08:43:18;;;;;;;3.60;2.10;;;15.30;99.90;;;;;;4968027;28;20029;-75
2022/10/07 08:45:45;;;;;;;2.30;1.77;;;15.30;99.90;;;;;;4967506;28;20057;-75
2022/10/07 08:48:20;;;;;;;11.80;2.22;;;15.50;99.90;;;;;;4967910;28;20282;-75
2022/10/07 08:51:12;;;;;;;2.45;1.73;;;15.50;99.90;;;;;;4967368;28;20081;-75
2022/10/07 08:53:38;;;;;;;3.30;2.50;;;15.50;99.90;;;;;;4967673;28;20157;-75
2022/10/07 08:56:19;;;;;;;3.80;2.08;;;15.70;99.90;;;;;;4982061;28;20122;-76
2022/10/07 08:59:08;;;;;;;2.50;1.88;;;15.80;99.90;;;;;;4981801;28;20081;-74
2022/10/07 09:01:58;;;;;;;4.53;2.47;;;15.80;99.90;;;;;;4967441;28;20023;-75
2022/10/07 09:04:52;;;;;;;3.53;1.85;;;15.90;99.90;;;;;;4967159;28;20443;-75
2022/10/07 09:07:21;;;;;;;2.08;1.65;;;16.00;99.90;;;;;;4981990;28;20141;-75
2022/10/07 09:10:04;;;;;;;5.55;1.67;;;16.20;99.90;;;;;;4967558;28;20034;-76
2022/10/07 09:12:57;;;;;;;3.22;2.05;;;16.20;99.90;;;;;;4965209;28;20411;-75
2022/10/07 09:15:39;;;;;;;1.92;1.70;;;16.30;99.90;;;;;;4965319;28;20479;-75
2022/10/07 09:18:14;;;;;;;3.55;1.50;;;16.40;99.90;;;;;;4967927;28;20030;-75
2022/10/07 09:20:44;;;;;;;2.60;2.33;;;16.50;99.90;;;;;;4982199;28;20081;-75
2022/10/07 09:23:14;;;;;;;4.38;2.33;;;16.70;99.90;;;;;;4967632;28;20026;-75
2022/10/07 09:25:41;;;;;;;2.80;1.63;;;16.60;99.90;;;;;;4966252;28;20042;-75
2022/10/07 09:28:16;;;;;;;5.07;2.17;;;16.80;99.90;;;;;;4967392;28;20318;-75
2022/10/07 09:30:42;;;;;;;2.30;2.08;;;16.80;99.90;;;;;;4967009;28;20045;-75
2022/10/07 09:33:22;;;;;;;5.90;1.63;;;16.80;99.90;;;;;;4967412;28;20031;-75
2022/10/07 09:36:05;;;;;;;3.58;1.67;;;16.90;99.90;;;;;;4967055;28;20089;-76
2022/10/07 09:38:39;;;;;;;1.83;1.38;;;17.00;99.90;;;;;;4967483;28;20511;-77
2022/10/07 09:41:16;;;;;;;2.70;1.75;;;17.80;99.90;;;;;;4967715;28;20019;-76
2022/10/07 09:44:09;;;;;;;3.58;1.90;;;17.10;99.90;;;;;;4967431;28;20023;-75
2022/10/07 09:46:41;;;;;;;2.00;1.50;;;17.10;99.90;;;;;;4965050;28;20395;-75
2022/10/07 09:49:27;;;;;;;5.10;2.55;;;17.20;99.90;;;;;;4965829;28;20550;-75
2022/10/07 09:52:15;;;;;;;2.88;2.00;;;17.20;99.90;;;;;;4967419;28;20547;-75
2022/10/07 09:54:47;;;;;;;1.65;1.55;;;17.40;99.90;;;;;;4967260;28;20019;-75
2022/10/07 09:57:21;;;;;;;3.20;1.55;;;17.60;99.90;;;;;;4967350;28;20027;-74
2022/10/07 09:59:47;;;;;;;3.60;2.25;;;17.70;99.90;;;;;;4967638;28;20037;-74
2022/10/07 10:02:13;;;;;;;5.90;1.42;;;17.70;99.90;;;;;;4967227;28;20642;-75
2022/10/07 10:04:54;;;;;;;1.05;1.00;;;17.80;99.90;;;;;;4965431;28;20026;-75
2022/10/07 10:07:24;;;;;;;3.55;1.45;;;17.80;99.90;;;;;;4965549;28;20046;-75
2022/10/07 10:10:04;;;;;;;1.70;1.38;;;17.90;99.90;;;;;;4968678;28;20035;-76
2022/10/07 10:12:43;;;;;;;4.53;1.92;;;18.00;99.90;;;;;;4970386;28;20046;-76
2022/10/07 10:15:35;;;;;;;4.20;2.08;;;18.00;99.90;;;;;;4968822;28;20476;-76
2022/10/07 10:18:21;;;;;;;2.05;1.50;;;18.10;99.90;;;;;;4969478;28;20047;-74
2022/10/07 10:20:47;;;;;;;2.15;1.80;;;18.10;99.90;;;;;;4970412;28;20078;-75
2022/10/07 10:23:30;;;;;;;1.45;1.35;;;18.10;99.90;;;;;;4968705;28;20027;-75
2022/10/07 10:26:26;;;;;;;1.30;1.20;;;18.20;99.90;;;;;;4970112;28;20018;-76
2022/10/07 10:29:20;;;;;;;1.30;1.20;;;18.30;99.90;;;;;;4983186;28;20026;-75
2022/10/07 10:32:03;;;;;;;1.42;1.08;;;18.50;99.90;;;;;;4969890;28;20330;-75
2022/10/07 10:34:49;;;;;;;1.45;1.15;;;18.50;99.90;;;;;;4969587;28;20054;-75
2022/10/07 10:37:26;;;;;;;3.22;1.33;;;18.70;99.90;;;;;;4968653;28;20038;-75
2022/10/07 10:40:17;;;;;;;4.22;1.38;;;18.70;99.90;;;;;;4970069;28;20034;-75
2022/10/07 10:43:19;;;;;;;0.90;0.82;;;18.70;99.90;;;;;;4968676;28;20077;-75
2022/10/07 10:46:07;;;;;;;2.78;1.63;;;18.70;99.90;;;;;;4976228;28;20035;-74
2022/10/07 10:48:52;;;;;;;5.20;1.55;;;18.70;99.90;;;;;;4970144;28;20673;-75
2022/10/07 10:51:44;;;;;;;2.55;2.00;;;18.70;99.90;;;;;;4970151;28;20439;-74
2022/10/07 10:54:30;;;;;;;2.33;1.52;;;18.80;99.90;;;;;;4968319;28;20365;-74
2022/10/07 10:57:15;;;;;;;1.25;1.17;;;18.90;99.90;;;;;;4970028;28;20018;-76
2022/10/07 11:00:12;;;;;;;1.65;0.90;;;19.00;99.90;;;;;;4969600;28;20026;-74
2022/10/07 11:02:38;;;;;;;2.88;1.52;;;19.10;99.90;;;;;;4969664;28;20022;-75
2022/10/07 11:05:14;;;;;;;1.20;0.80;;;19.10;99.90;;;;;;4969134;28;20085;-75
2022/10/07 11:08:13;;;;;;;8.57;2.70;;;19.10;99.90;;;;;;4967203;28;20143;-74
2022/10/07 11:11:08;;;;;;;1.02;1.00;;;19.20;99.90;;;;;;4966651;28;20043;-75
2022/10/07 11:13:49;;;;;;;2.00;1.70;;;19.30;99.90;;;;;;4966261;28;20578;-75
2022/10/07 11:16:26;;;;;;;6.78;1.35;;;19.40;99.90;;;;;;4966266;28;20031;-75
2022/10/07 11:19:19;;;;;;;6.30;0.90;;;19.40;99.90;;;;;;4968067;28;20033;-76
2022/10/07 11:21:50;;;;;;;4.85;0.98;;;19.60;99.90;;;;;;4966146;28;20377;-75
2022/10/07 11:24:44;;;;;;;1.63;1.20;;;19.70;99.90;;;;;;4967480;28;20162;-76
2022/10/07 11:27:27;;;;;;;1.05;1.00;;;19.70;99.90;;;;;;4968409;28;20228;-75
2022/10/07 11:30:20;;;;;;;5.88;0.95;;;19.80;99.90;;;;;;4968763;28;20031;-76
2022/10/07 11:33:00;;;;;;;3.03;1.20;;;19.90;99.90;;;;;;4967791;28;20053;-75
2022/10/07 11:35:42;;;;;;;0.70;0.70;;;20.20;99.90;;;;;;4966492;28;20019;-76
2022/10/07 11:38:13;;;;;;;1.85;1.17;;;20.40;99.90;;;;;;4969807;28;20027;-75
2022/10/07 11:40:45;;;;;;;1.15;1.08;;;20.60;99.90;;;;;;4971482;28;20023;-76
2022/10/07 11:43:39;;;;;;;1.25;1.10;;;20.50;99.90;;;;;;4970715;28;20061;-75
2022/10/07 11:46:16;;;;;;;1.70;0.95;;;20.60;99.90;;;;;;4970086;28;20043;-76
2022/10/07 11:49:11;;;;;;;1.17;0.95;;;20.50;99.90;;;;;;4969625;28;20030;-75
2022/10/07 11:51:45;;;;;;;1.38;1.27;;;20.40;99.90;;;;;;4965646;28;20259;-75
2022/10/07 11:54:19;;;;;;;1.48;1.10;;;20.40;99.90;;;;;;4968446;28;20515;-75
2022/10/07 11:56:49;;;;;;;4.07;1.80;;;20.40;99.90;;;;;;4968118;28;20438;-78
2022/10/07 11:59:41;;;;;;;7.88;1.42;;;20.50;99.90;;;;;;4968906;28;20031;-77
2022/10/07 12:02:28;;;;;;;5.18;1.17;;;20.70;99.90;;;;;;4971632;28;20073;-77
2022/10/07 12:05:03;;;;;;;1.25;0.80;;;21.10;99.90;;;;;;4967716;28;20022;-78
2022/10/07 12:07:41;;;;;;;4.57;1.25;;;21.50;99.90;;;;;;4966085;28;20047;-77
2022/10/07 12:10:25;;;;;;;1.33;1.23;;;22.10;99.90;;;;;;4962651;28;20483;-76
2022/10/07 12:12:58;;;;;;;0.80;0.80;;;22.90;99.90;;;;;;4969524;28;20046;-76
2022/10/07 12:15:40;;;;;;;1.40;1.15;;;23.60;99.10;;;;;;4970135;28;20022;-76
2022/10/07 12:18:06;;;;;;;4.90;1.17;;;25.20;78.30;;;;;;4970454;28;20033;-79
2022/10/07 12:20:51;;;;;;;3.50;1.45;;;25.10;78.30;;;;;;4970257;28;20448;-77
2022/10/07 12:23:27;;;;;;;1.30;1.20;;;25.60;73.90;;;;;;4950637;28;20179;-78
2022/10/07 12:26:24;;;;;;;1.23;0.85;;;26.00;73.70;;;;;;4950897;28;20380;-76
2022/10/07 12:28:51;;;;;;;2.35;1.08;;;25.50;72.50;;;;;;4947028;29;20432;-77
2022/10/07 12:31:17;;;;;;;1.17;1.05;;;25.90;70.60;;;;;;4948454;28;20049;-77
2022/10/07 12:33:56;;;;;;;3.10;1.33;;;26.70;68.70;;;;;;4948325;28;20027;-78
2022/10/07 12:36:22;;;;;;;1.95;0.68;;;27.30;66.30;;;;;;4947377;28;20476;-76
2022/10/07 12:38:58;;;;;;;1.55;1.45;;;28.90;62.30;;;;;;4947116;28;20030;-77
2022/10/07 12:41:30;;;;;;;8.25;1.30;;;30.10;59.10;;;;;;4948836;29;20106;-77
2022/10/07 12:43:59;;;;;;;0.95;0.68;;;30.40;57.80;;;;;;4948338;29;20038;-76
2022/10/07 12:46:29;;;;;;;2.70;1.17;;;30.30;58.00;;;;;;4948215;29;20087;-77
2022/10/07 12:49:29;;;;;;;1.48;0.70;;;31.20;56.80;;;;;;4948225;28;20027;-76
2022/10/07 12:51:58;;;;;;;3.50;1.95;;;31.50;54.90;;;;;;4929615;28;20098;-77
2022/10/07 12:54:32;;;;;;;2.05;1.05;;;31.20;54.50;;;;;;4948086;28;20026;-77
2022/10/07 12:57:00;;;;;;;0.95;0.73;;;30.50;55.10;;;;;;4948305;28;20515;-75
2022/10/07 12:59:47;;;;;;;2.43;1.73;;;30.10;55.10;;;;;;4964687;28;20030;-77
2022/10/07 13:02:32;;;;;;;1.23;1.13;;;29.70;57.20;;;;;;4968416;28;20109;-77
2022/10/07 13:05:04;;;;;;;2.25;1.23;;;30.10;56.90;;;;;;4967331;28;20063;-78
2022/10/07 13:08:08;;;;;;;1.45;1.30;;;29.80;55.40;;;;;;4966032;28;20411;-76
2022/10/07 13:10:54;;;;;;;1.08;0.90;;;29.80;55.70;;;;;;4976671;28;20139;-76
2022/10/07 13:13:46;;;;;;;5.28;1.48;;;30.30;55.60;;;;;;4966166;28;20570;-77
2022/10/07 13:16:28;;;;;;;1.02;0.95;;;31.10;54.60;;;;;;4965380;28;20640;-77
2022/10/07 13:19:03;;;;;;;0.90;0.77;;;31.00;54.60;;;;;;4966449;28;20031;-78
2022/10/07 13:21:49;;;;;;;2.83;1.00;;;32.20;54.70;;;;;;4966469;28;20034;-76
2022/10/07 13:24:22;;;;;;;1.42;1.33;;;31.80;53.30;;;;;;4965812;28;20436;-78
2022/10/07 13:26:48;;;;;;;10.65;1.33;;;31.70;54.20;;;;;;4967611;28;20507;-78